Bangor, ME (04401)

8:31 PM EDT on August 24, 2016 (GMT -0400)
Essex St Hill | | Change Station

Elev 208 ft 44.82 °N, 68.77 °W | Updated 13 seconds ago

Scattered Clouds
Scattered Clouds
72.6 °F
Feels Like 76 °F
N
1.0
Wind Variable Wind from SW
Gusts 5.0 mph

Today
High -- | Low -- °F
--% Chance of Precip.
Yesterday
High -- | Low -- °F
Precip. -- in
Pressure 30.11 in
Visibility 10.0 miles
Clouds Few 15000 ft
Scattered Clouds 25000 ft
Heat Index 76 °F
Dew Point 59 °F
Humidity 62%
Rainfall 0.07 in
Snow Depth Not available.
5:48 AM 7:25 PM
Waning Gibbous, 52% visible
METAR KBGR 242353Z 20006KT 10SM FEW150 SCT250 23/16 A3011 RMK AO2 SLP194 T02280161 10289 20228 53005
Pressure 30.11 in
Visibility 10.0 miles
Clouds Few 15000 ft
Scattered Clouds 25000 ft
Heat Index 76 °F
Dew Point 59 °F
Humidity 62%
Rainfall 0.07 in
Snow Depth Not available.
5:48 AM 7:25 PM
Waning Gibbous, 52% visible
METAR KBGR 242353Z 20006KT 10SM FEW150 SCT250 23/16 A3011 RMK AO2 SLP194 T02280161 10289 20228 53005

10-Day Weather Forecast

Almanac

Astronomy

Aug. 24, 2016 Rise Set
Actual Time
Civil Twilight
Nautical Twilight
Astronomical Twilight
Moon
Length of Visible Light
Length of Day
Tomorrow will be .
, % of the Moon is Illuminated

Today's Extremes

State Highs State Lows

Community

WunderPhotos

Upload Photos

1,934,745 photos uploaded!

WunderBlog® & News

Nearby

Air Quality

  Air Quality AQ Index Pollutant
Not available.

Snow Depth

Station Depth Elevation

Earthquake Activity

City Distance Mag. Time & Date
Minimum magnitude displayed is 2.5.

Coastal Water Temperatures

Place Temperature

Stations

Nearby Weather Stations

Station Location Temp. Windchill Dew Point Humidity Wind Precip. Elev Updated Type
                   

Watches & Warnings

There are currently no watches in effect.